Accueil
METAR-TAF:

METAR-TAF

Aéroports :

Djeddah, Arabie saoudite

Aéroport international Roi-Abdelaziz

latitude: 21-42N, longitude: 039-11E, altitude: 15 m

Observation

Le bulletin a été fait il y a 10 minutes, à 05:00 UTC
Vent 6 kt de nord-ouest
Température 30°C
Humidité 59%
Pression 1004 hPa
Visibilité 10 km ou plus
Quelques nuages à une hauteur de 4000 ft

METAR: OEJN 260500Z 32006KT 9999 FEW040 30/21 Q1004 NOSIG

Heure: 08:10 (05:10 UTC)


TAF: absent

Observations et prévisions météorologiques de plus de 4000 aéroports (messages METAR et TAF).

Les stations disponibles sont représentées par des disques jaunes et rouges sur la carte.

Passer la souris dessus pour voir le nom de la station.

Cliquer dessus pour voir les observations et prévisions météorologiques.

Pour changer de carte: cliquez sur les boutons verts avec une croix noire pour zoomer, sur le bouton vert avec un tiret pour effectuer un zoom arrière, ou sur les flèches vertes pour les cartes adjacentes.


METAR-TAF: